Park Valley, UT (84329)

1:03 PM MST on January 26, 2015 (GMT -0700)
APRSWXNET Park Valley 1431A UT US | Change Station
CLOSE
Current Station
Personal Weather Station
Location: Park Valley, UT
Elevation: 5534 ft
Nearby Weather Stations

Elev 5534 ft 41.82 °N, 113.33 °W | Updated 36 minutes ago

Clear
Clear
47 °F
Feels Like 45 °F
N
4
Wind Variable Wind from WSW
Gusts 6.0 mph

Today
High -- | Low -- °F
--% Chance of Precip.
Yesterday
High -- | Low -- °F
Precip. -- in
7:51 AM 5:40 PM
Waxing Crescent, 46% visible
Pressure 29.21 in
Visibility 7.0 miles
Clouds Clear
Windchill 45 °F
Dew Point 37 °F
Humidity 67%
Rainfall 0.00 in
Snow Depth Not available.
UV 3 out of 12
Pollen .10 out of 12
Air Quality Not available.
Flu Activity Not available.
METAR KU16 261858Z AUTO 36003KT 7SM CLR 05/00 A3034 RMK AO2 SLP890 T00500000 $

More Conditions Fewer Conditions

Pressure 29.21 in
Visibility 7.0 miles
Clouds Clear
Windchill 45 °F
Dew Point 37 °F
Humidity 67%
Rainfall 0.00 in
Snow Depth Not available.
UV 3 out of 12
Pollen .10 out of 12
Air Quality Not available.
Flu Activity Not available.
METAR KU16 261858Z AUTO 36003KT 7SM CLR 05/00 A3034 RMK AO2 SLP890 T00500000 $

More Conditions Fewer Conditions

10-Day Weather Forecast

Almanac

Astronomy

Jan. 26, 2015 Rise Set
Actual Time
Civil Twilight
Nautical Twilight
Astronomical Twilight
Moon
Length of Visible Light
Length of Day
Tomorrow will be .
, % of the Moon is Illuminated

Today's Extremes

State Highs State Lows

Community

WunderPhotos

Upload Photos

1,790,344 photos uploaded!

WunderBlogs® & News

Nearby

Air Quality

  Air Quality AQ Index Pollutant
Not available.

Snow Depth

Station Depth Elevation

Earthquake Activity

City Distance Mag. Time & Date
Minimum magnitude displayed is 2.5.

Coastal Water Temperatures

Place Temperature

Nearby Weather Stations